Hartshorne, Oklahoma
Current Conditions -  °F | °C
As of 10:53 PM on Friday 24 Oct 2014 (Local Time) from KMLC Reporting Station
Few Clouds Few Clouds  
Wind Chill: 69°   Ceiling: Unl
Heat Index: 69°   Visibility: 10mi
Dew Point: 59°   Wind: 5mph
Humidity: 70%   Direction: 190°S
Pressure: 30.09"   Gusts: NA
Location:  34.85°N, 95.56°W
Report Text: KMLC 250353Z AUTO 19004KT 10SM FEW065 FEW080 FEW110 21/15 A3009 RMK AO2 SLP182 T02060150
Loading
Personal Weather Stations






























Interactive Weather Map
Tropical Storm Tracking
New forecast layout! Learn more

10-Day Weather Forecast

Advertisements
Track Severe Weather on mobile